Time;durP1;ratioP1;P1;durP2;ratioP2;P2;SDS_P1;SDS_P2;PMS_P1;PMS_P2;Temp;Humidity;BMP_temperature;BMP_pressure;BME280_temperature;BME280_humidity;BME280_pressure;Samples;Min_cycle;Max_cycle;Signal;HPM_P1;HPM_P2
2020/12/25 00:01:27;;;;;;;0.00;0.00;;;5.70;77.50;;;;;;4983070;28;20497;-67
2020/12/25 00:03:57;;;;;;;0.00;0.00;;;5.60;77.60;;;;;;4979104;28;20422;-67
2020/12/25 00:06:23;;;;;;;0.00;0.00;;;5.50;77.60;;;;;;4979652;28;20266;-67
2020/12/25 00:08:49;;;;;;;0.98;0.30;;;5.40;77.90;;;;;;4978828;28;20439;-68
2020/12/25 00:11:15;;;;;;;0.60;0.30;;;5.40;78.00;;;;;;4977744;28;20031;-66
2020/12/25 00:13:40;;;;;;;0.52;0.17;;;5.30;78.00;;;;;;4979346;28;20078;-67
2020/12/25 00:16:06;;;;;;;0.95;0.30;;;5.20;78.00;;;;;;4980148;28;20045;-67
2020/12/25 00:18:32;;;;;;;0.10;0.10;;;5.20;78.30;;;;;;4979122;28;20038;-68
2020/12/25 00:20:57;;;;;;;0.10;0.10;;;5.10;78.50;;;;;;4979742;28;20049;-68
2020/12/25 00:23:23;;;;;;;0.30;0.20;;;5.10;78.50;;;;;;4979437;28;20042;-67
2020/12/25 00:25:48;;;;;;;0.10;0.10;;;5.00;78.50;;;;;;4978150;28;20117;-67
2020/12/25 00:28:14;;;;;;;0.00;0.00;;;5.00;78.40;;;;;;4977959;28;20584;-67
2020/12/25 00:30:43;;;;;;;0.10;0.10;;;4.90;78.30;;;;;;4977672;28;20048;-67
2020/12/25 00:33:10;;;;;;;0.30;0.17;;;4.90;78.50;;;;;;4978834;28;20047;-67
2020/12/25 00:35:36;;;;;;;0.00;0.00;;;4.80;78.70;;;;;;4979508;28;20390;-67
2020/12/25 00:38:01;;;;;;;0.00;0.00;;;4.80;78.80;;;;;;4978257;28;20071;-67
2020/12/25 00:40:27;;;;;;;0.05;0.00;;;4.80;78.80;;;;;;4979044;28;20033;-68
2020/12/25 00:42:53;;;;;;;0.88;0.00;;;4.70;78.80;;;;;;4977528;28;20031;-67
2020/12/25 00:45:19;;;;;;;0.00;0.00;;;4.70;78.70;;;;;;4979317;28;20030;-66
2020/12/25 00:47:44;;;;;;;0.00;0.00;;;4.70;78.80;;;;;;4984568;28;20267;-67
2020/12/25 00:50:10;;;;;;;0.00;0.00;;;4.60;78.50;;;;;;4977439;28;20112;-67
2020/12/25 00:52:36;;;;;;;0.00;0.00;;;4.50;78.70;;;;;;4979672;28;20034;-67
2020/12/25 00:55:02;;;;;;;0.05;0.00;;;4.50;78.80;;;;;;4983689;28;20121;-67
2020/12/25 00:57:27;;;;;;;0.00;0.00;;;4.50;79.00;;;;;;4982548;28;20038;-67
2020/12/25 00:59:53;;;;;;;0.00;0.00;;;4.50;78.80;;;;;;4981538;28;20041;-68
2020/12/25 01:02:19;;;;;;;0.25;0.00;;;4.40;78.30;;;;;;4982900;28;20590;-67
2020/12/25 01:04:44;;;;;;;0.00;0.00;;;4.40;78.60;;;;;;4981652;28;20506;-68
2020/12/25 01:07:10;;;;;;;0.85;0.00;;;4.30;78.50;;;;;;4981340;28;20042;-67
2020/12/25 01:09:36;;;;;;;0.00;0.00;;;4.40;78.50;;;;;;4982315;28;20049;-67
2020/12/25 01:12:02;;;;;;;0.08;0.00;;;4.30;78.50;;;;;;4979702;28;20063;-67
2020/12/25 01:14:29;;;;;;;1.65;0.00;;;4.30;78.80;;;;;;4982045;28;20511;-67
2020/12/25 01:16:56;;;;;;;0.00;0.00;;;4.30;79.20;;;;;;4982849;28;20042;-67
2020/12/25 01:19:23;;;;;;;0.00;0.00;;;4.30;79.40;;;;;;4983282;28;20039;-67
2020/12/25 01:21:49;;;;;;;0.30;0.00;;;4.30;79.30;;;;;;4982994;28;20032;-67
2020/12/25 01:24:14;;;;;;;0.00;0.00;;;4.30;79.20;;;;;;4981645;28;20049;-67
2020/12/25 01:26:40;;;;;;;0.20;0.03;;;4.20;79.20;;;;;;4982192;28;20134;-67
2020/12/25 01:29:06;;;;;;;0.10;0.00;;;4.20;79.40;;;;;;4982539;28;20038;-67
2020/12/25 01:31:31;;;;;;;0.00;0.00;;;4.20;79.70;;;;;;4982228;28;20061;-67
2020/12/25 01:33:57;;;;;;;0.00;0.00;;;4.20;79.30;;;;;;4981809;28;20046;-67
2020/12/25 01:36:23;;;;;;;0.28;0.08;;;4.20;79.30;;;;;;4982422;28;20042;-67
2020/12/25 01:38:48;;;;;;;0.00;0.00;;;4.20;79.40;;;;;;4982644;28;20054;-67
2020/12/25 01:41:14;;;;;;;0.00;0.00;;;4.20;79.50;;;;;;4983036;28;20027;-67
2020/12/25 01:43:39;;;;;;;0.08;0.08;;;4.20;79.60;;;;;;4982312;28;20960;-63
2020/12/25 01:46:05;;;;;;;0.10;0.10;;;4.20;79.70;;;;;;4980691;28;20042;-67
2020/12/25 01:48:32;;;;;;;0.00;0.00;;;4.10;79.80;;;;;;4980263;28;20413;-68
2020/12/25 01:50:59;;;;;;;0.00;0.00;;;4.10;79.90;;;;;;4981042;28;20386;-66
2020/12/25 01:53:27;;;;;;;0.30;0.10;;;4.20;80.00;;;;;;4983771;28;20095;-67
2020/12/25 01:55:54;;;;;;;0.00;0.00;;;4.10;80.10;;;;;;4983840;28;20158;-66
2020/12/25 01:58:22;;;;;;;0.03;0.03;;;4.10;80.10;;;;;;4982831;28;20490;-67
2020/12/25 02:00:48;;;;;;;0.13;0.10;;;4.10;80.40;;;;;;4983577;28;20053;-67
2020/12/25 02:03:18;;;;;;;0.38;0.10;;;4.10;80.50;;;;;;4982616;28;20114;-65
2020/12/25 02:05:45;;;;;;;0.10;0.00;;;4.00;80.50;;;;;;4985927;28;20050;-67
2020/12/25 02:08:12;;;;;;;0.00;0.00;;;4.00;80.40;;;;;;4981648;28;20055;-65
2020/12/25 02:10:38;;;;;;;0.00;0.00;;;4.00;80.50;;;;;;4979167;28;20500;-66
2020/12/25 02:13:08;;;;;;;0.00;0.00;;;4.00;80.60;;;;;;4981634;28;20034;-66
2020/12/25 02:15:37;;;;;;;0.20;0.00;;;4.00;80.60;;;;;;4981932;28;20074;-68
2020/12/25 02:18:04;;;;;;;0.00;0.00;;;4.00;80.70;;;;;;4993929;28;20057;-66
2020/12/25 02:20:30;;;;;;;0.00;0.00;;;4.00;80.70;;;;;;4981465;28;20034;-64
2020/12/25 02:22:56;;;;;;;0.00;0.00;;;4.00;80.80;;;;;;4981989;28;20037;-66
2020/12/25 02:25:21;;;;;;;0.00;0.00;;;4.00;81.00;;;;;;4981415;28;20149;-66
2020/12/25 02:27:47;;;;;;;0.00;0.00;;;4.00;80.90;;;;;;4981047;28;20125;-67
2020/12/25 02:30:14;;;;;;;0.38;0.10;;;3.90;80.90;;;;;;4981618;28;20034;-62
2020/12/25 02:32:40;;;;;;;0.08;0.00;;;4.00;81.10;;;;;;4980282;28;20524;-67
2020/12/25 02:35:05;;;;;;;0.00;0.00;;;3.90;81.10;;;;;;4979903;28;20035;-67
2020/12/25 02:37:31;;;;;;;0.30;0.00;;;3.90;81.10;;;;;;4980547;28;20039;-63
2020/12/25 02:39:57;;;;;;;0.00;0.00;;;3.90;80.90;;;;;;4980782;28;20042;-65
2020/12/25 02:42:22;;;;;;;0.00;0.00;;;3.90;80.90;;;;;;4980012;28;20109;-66
2020/12/25 02:44:48;;;;;;;0.08;0.08;;;3.90;80.90;;;;;;4987217;28;20038;-67
2020/12/25 02:47:14;;;;;;;0.00;0.00;;;3.90;80.90;;;;;;4980784;28;20102;-67
2020/12/25 02:49:39;;;;;;;0.00;0.00;;;3.90;81.10;;;;;;4980243;28;20049;-67
2020/12/25 02:52:05;;;;;;;0.10;0.08;;;3.90;81.20;;;;;;4980781;28;20034;-66
2020/12/25 02:54:31;;;;;;;0.10;0.10;;;3.90;81.30;;;;;;4979702;28;20049;-66
2020/12/25 02:56:58;;;;;;;0.15;0.15;;;3.90;81.30;;;;;;4979943;28;20042;-68
2020/12/25 02:59:24;;;;;;;0.20;0.10;;;4.00;81.30;;;;;;4979373;28;20057;-67
2020/12/25 03:01:51;;;;;;;0.10;0.10;;;3.90;81.00;;;;;;4980895;28;20089;-67
2020/12/25 03:04:17;;;;;;;1.75;0.20;;;3.90;80.90;;;;;;4979212;28;20031;-66
2020/12/25 03:06:43;;;;;;;0.10;0.10;;;3.90;80.90;;;;;;4980037;28;20066;-66
2020/12/25 03:09:09;;;;;;;0.17;0.17;;;3.90;80.90;;;;;;4980240;28;20096;-66
2020/12/25 03:11:35;;;;;;;0.20;0.20;;;3.90;80.90;;;;;;4977857;28;20442;-66
2020/12/25 03:14:01;;;;;;;0.57;0.20;;;3.90;80.90;;;;;;4980465;28;20030;-66
2020/12/25 03:16:26;;;;;;;0.10;0.10;;;3.90;80.90;;;;;;4979279;28;20078;-66
2020/12/25 03:18:52;;;;;;;0.20;0.20;;;3.90;80.80;;;;;;4978907;28;20035;-66
2020/12/25 03:21:17;;;;;;;0.20;0.20;;;4.00;80.80;;;;;;4980668;28;20482;-67
2020/12/25 03:23:43;;;;;;;0.20;0.20;;;4.00;80.90;;;;;;4980140;28;20049;-67
2020/12/25 03:26:09;;;;;;;0.20;0.20;;;4.00;80.90;;;;;;4980649;28;20395;-68
2020/12/25 03:28:34;;;;;;;0.20;0.20;;;4.00;81.00;;;;;;4979767;28;20038;-66
2020/12/25 03:31:00;;;;;;;0.40;0.40;;;4.00;80.90;;;;;;4978660;28;20130;-66
2020/12/25 03:33:25;;;;;;;0.20;0.20;;;4.10;81.00;;;;;;4979404;28;20505;-68
2020/12/25 03:35:51;;;;;;;0.20;0.20;;;4.10;80.90;;;;;;4977507;28;20097;-67
2020/12/25 03:38:18;;;;;;;0.95;0.60;;;4.10;81.00;;;;;;4979511;28;20127;-66
2020/12/25 03:40:43;;;;;;;0.52;0.52;;;4.20;81.00;;;;;;4977923;28;20042;-67
2020/12/25 03:43:09;;;;;;;0.50;0.50;;;4.20;80.90;;;;;;4978726;28;20034;-66
2020/12/25 03:45:34;;;;;;;0.50;0.50;;;4.20;80.80;;;;;;4978842;28;20110;-66
2020/12/25 03:48:00;;;;;;;0.60;0.60;;;4.20;80.70;;;;;;4979632;28;20506;-67
2020/12/25 03:50:29;;;;;;;0.50;0.50;;;4.30;80.80;;;;;;4978757;28;20117;-65
2020/12/25 03:52:55;;;;;;;0.40;0.40;;;4.30;80.70;;;;;;4979463;28;20133;-66
2020/12/25 03:55:22;;;;;;;0.60;0.60;;;4.30;80.60;;;;;;4980067;28;20133;-67
2020/12/25 03:57:48;;;;;;;0.50;0.50;;;4.30;80.70;;;;;;4979197;28;20097;-66
2020/12/25 04:00:13;;;;;;;0.60;0.60;;;4.30;80.60;;;;;;4979105;28;20062;-67
2020/12/25 04:02:39;;;;;;;0.50;0.50;;;4.30;80.60;;;;;;4980264;28;20063;-67
2020/12/25 04:05:05;;;;;;;0.50;0.50;;;4.40;80.60;;;;;;4980057;28;20069;-66
2020/12/25 04:07:31;;;;;;;0.50;0.50;;;4.40;80.60;;;;;;4978757;28;20046;-67
2020/12/25 04:09:56;;;;;;;0.50;0.50;;;4.40;80.60;;;;;;4979964;28;20038;-67
2020/12/25 04:12:22;;;;;;;0.43;0.43;;;4.40;80.50;;;;;;4978792;28;20061;-67
2020/12/25 04:14:47;;;;;;;0.60;0.60;;;4.40;80.60;;;;;;4979456;28;20053;-66
2020/12/25 04:17:13;;;;;;;0.50;0.50;;;4.50;80.60;;;;;;4978593;28;20592;-68
2020/12/25 04:19:39;;;;;;;0.70;0.70;;;4.50;80.60;;;;;;4978174;28;20038;-67
2020/12/25 04:22:04;;;;;;;0.50;0.50;;;4.50;80.60;;;;;;4979733;28;20043;-66
2020/12/25 04:24:30;;;;;;;0.50;0.50;;;4.50;80.70;;;;;;4977753;28;20062;-67
2020/12/25 04:26:55;;;;;;;0.50;0.50;;;4.50;80.60;;;;;;4979418;28;20045;-67
2020/12/25 04:29:21;;;;;;;0.40;0.40;;;4.50;80.60;;;;;;4981662;28;20125;-66
2020/12/25 04:31:46;;;;;;;0.60;0.60;;;4.50;80.60;;;;;;4989638;28;20034;-66
2020/12/25 04:34:12;;;;;;;0.70;0.70;;;4.50;80.60;;;;;;4982978;28;20026;-66
2020/12/25 04:36:38;;;;;;;0.50;0.50;;;4.50;80.60;;;;;;4983386;28;20026;-66
2020/12/25 04:39:05;;;;;;;0.60;0.60;;;4.50;80.60;;;;;;4982703;28;20090;-67
2020/12/25 04:41:32;;;;;;;0.60;0.60;;;4.50;80.70;;;;;;4997254;28;20042;-66
2020/12/25 04:43:59;;;;;;;0.50;0.50;;;4.40;80.70;;;;;;4983635;28;20043;-66
2020/12/25 04:46:25;;;;;;;0.70;0.70;;;4.40;80.80;;;;;;4982665;28;20572;-67
2020/12/25 04:48:51;;;;;;;0.60;0.60;;;4.40;80.90;;;;;;4981095;28;20046;-66
2020/12/25 04:51:17;;;;;;;0.63;0.63;;;4.40;81.00;;;;;;4982831;28;20055;-66
2020/12/25 04:53:47;;;;;;;0.75;0.70;;;4.40;81.00;;;;;;4983477;28;20039;-67
2020/12/25 04:56:13;;;;;;;0.60;0.60;;;4.40;81.10;;;;;;4982952;28;20035;-67
2020/12/25 04:58:39;;;;;;;0.75;0.75;;;4.40;81.10;;;;;;4982813;28;20457;-65
2020/12/25 05:01:07;;;;;;;0.50;0.50;;;4.40;81.00;;;;;;4982723;28;20027;-66
2020/12/25 05:03:36;;;;;;;0.77;0.77;;;4.40;81.10;;;;;;4982757;28;20093;-66
2020/12/25 05:06:04;;;;;;;0.75;0.75;;;4.40;82.00;;;;;;4982658;28;20038;-66
2020/12/25 05:08:36;;;;;;;2.08;1.63;;;4.40;81.10;;;;;;4981505;28;20029;-66
2020/12/25 05:11:01;;;;;;;17.23;9.05;;;4.50;81.10;;;;;;4982429;28;20027;-66
2020/12/25 05:13:27;;;;;;;2.38;1.38;;;4.50;80.90;;;;;;4982497;28;20027;-68
2020/12/25 05:15:52;;;;;;;1.50;1.10;;;4.50;81.10;;;;;;4966073;28;20034;-67
2020/12/25 05:18:20;;;;;;;1.30;1.08;;;4.50;81.10;;;;;;4982789;28;20026;-66
2020/12/25 05:20:47;;;;;;;1.08;0.98;;;4.50;80.90;;;;;;4964523;28;20402;-66
2020/12/25 05:23:12;;;;;;;1.40;1.10;;;4.50;80.90;;;;;;4983015;28;20173;-67
2020/12/25 05:25:40;;;;;;;1.20;1.10;;;4.50;80.70;;;;;;4982640;28;20145;-66
2020/12/25 05:28:13;;;;;;;1.50;1.40;;;4.50;80.70;;;;;;4980886;28;20049;-67
2020/12/25 05:30:43;;;;;;;1.30;1.20;;;4.50;80.80;;;;;;4980739;28;20092;-67
2020/12/25 05:33:09;;;;;;;1.52;1.42;;;4.50;80.70;;;;;;4981809;28;20037;-64
2020/12/25 05:35:36;;;;;;;1.20;1.10;;;4.60;80.70;;;;;;4982221;28;20168;-66
2020/12/25 05:38:09;;;;;;;1.42;1.33;;;4.60;80.70;;;;;;4980214;28;20027;-67
2020/12/25 05:40:42;;;;;;;1.77;1.67;;;4.60;80.60;;;;;;4981357;28;20042;-66
2020/12/25 05:43:08;;;;;;;1.90;1.80;;;4.50;80.50;;;;;;4981861;28;20030;-66
2020/12/25 05:45:38;;;;;;;1.42;1.30;;;4.60;80.60;;;;;;4982192;28;20056;-65
2020/12/25 05:48:05;;;;;;;2.15;1.40;;;4.60;80.50;;;;;;4981786;28;20046;-66
2020/12/25 05:50:31;;;;;;;2.45;1.40;;;4.60;80.40;;;;;;4980962;28;20034;-66
2020/12/25 05:52:57;;;;;;;2.33;2.15;;;4.50;80.30;;;;;;4981656;28;20027;-66
2020/12/25 05:55:26;;;;;;;1.33;1.23;;;4.60;80.40;;;;;;4980445;28;20069;-67
2020/12/25 05:57:54;;;;;;;1.90;1.80;;;4.50;80.40;;;;;;4981584;28;20039;-65
2020/12/25 06:00:21;;;;;;;1.48;1.38;;;4.60;80.40;;;;;;4981745;28;20045;-66
2020/12/25 06:02:51;;;;;;;2.30;2.17;;;4.60;80.50;;;;;;4981376;28;20035;-67
2020/12/25 06:05:18;;;;;;;2.35;2.15;;;4.60;80.60;;;;;;4981524;28;20034;-66
2020/12/25 06:07:58;;;;;;;1.67;1.58;;;4.60;80.60;;;;;;4980358;28;20046;-65
2020/12/25 06:10:25;;;;;;;1.70;1.60;;;4.60;80.60;;;;;;4979919;28;20545;-66
2020/12/25 06:12:52;;;;;;;1.88;1.77;;;4.60;80.40;;;;;;4979627;28;20052;-66
2020/12/25 06:15:38;;;;;;;1.80;1.70;;;4.60;80.40;;;;;;4995848;28;20042;-66
2020/12/25 06:18:23;;;;;;;1.73;1.60;;;4.70;80.40;;;;;;4982213;28;20034;-67
2020/12/25 06:20:56;;;;;;;2.58;1.70;;;4.70;80.30;;;;;;4981390;28;20511;-66
2020/12/25 06:23:25;;;;;;;1.40;1.30;;;4.70;80.30;;;;;;4981538;28;20038;-66
2020/12/25 06:25:51;;;;;;;1.40;1.30;;;4.70;80.20;;;;;;4981676;28;20026;-66
2020/12/25 06:28:19;;;;;;;1.30;1.10;;;4.70;80.20;;;;;;4981402;28;20042;-65
2020/12/25 06:30:44;;;;;;;1.10;1.00;;;4.70;80.50;;;;;;4980488;28;20586;-67
2020/12/25 06:33:10;;;;;;;1.40;1.08;;;4.70;80.20;;;;;;4981723;28;20125;-66
2020/12/25 06:35:42;;;;;;;1.10;1.05;;;4.70;80.30;;;;;;4980765;28;20113;-66
2020/12/25 06:38:13;;;;;;;1.38;1.13;;;4.70;80.30;;;;;;4981258;28;20030;-67
2020/12/25 06:40:39;;;;;;;1.23;1.10;;;4.70;80.40;;;;;;4980530;28;20031;-65
2020/12/25 06:43:18;;;;;;;1.05;0.95;;;4.70;81.20;;;;;;4979931;28;20129;-67
2020/12/25 06:45:49;;;;;;;1.20;1.10;;;4.70;80.20;;;;;;4980315;28;20067;-66
2020/12/25 06:48:18;;;;;;;1.25;1.15;;;4.60;80.10;;;;;;4980660;28;20045;-66
2020/12/25 06:50:55;;;;;;;1.00;1.00;;;4.60;80.10;;;;;;4979721;28;20042;-66
2020/12/25 06:53:41;;;;;;;1.20;1.10;;;4.70;80.20;;;;;;4980833;28;20106;-66
2020/12/25 06:56:18;;;;;;;1.00;1.00;;;4.60;80.40;;;;;;4980806;28;20445;-66
2020/12/25 06:58:50;;;;;;;3.10;1.00;;;4.70;80.40;;;;;;4979804;28;20042;-67
2020/12/25 07:01:32;;;;;;;1.00;0.90;;;4.70;80.40;;;;;;4980766;28;20031;-67
2020/12/25 07:03:59;;;;;;;1.05;1.00;;;4.70;80.30;;;;;;4978550;28;20039;-67
2020/12/25 07:06:28;;;;;;;1.20;1.10;;;4.70;80.30;;;;;;4980080;28;20042;-67
2020/12/25 07:08:54;;;;;;;1.30;1.20;;;4.70;80.40;;;;;;4978990;28;20521;-66
2020/12/25 07:11:20;;;;;;;1.70;1.60;;;4.70;80.50;;;;;;4979385;28;20039;-67
2020/12/25 07:13:46;;;;;;;2.35;1.88;;;4.70;80.40;;;;;;4980318;28;20044;-66
2020/12/25 07:16:12;;;;;;;2.45;2.25;;;4.70;80.40;;;;;;4980396;28;20030;-67
2020/12/25 07:18:38;;;;;;;2.20;2.00;;;4.70;80.40;;;;;;4978369;28;20049;-68
2020/12/25 07:21:08;;;;;;;2.65;2.45;;;4.70;80.40;;;;;;4981003;28;20102;-66
2020/12/25 07:23:41;;;;;;;3.47;2.60;;;4.70;80.40;;;;;;4980643;28;20034;-66
2020/12/25 07:26:07;;;;;;;2.50;2.25;;;4.70;80.50;;;;;;4980951;28;20030;-67
2020/12/25 07:28:33;;;;;;;3.22;2.47;;;4.70;80.40;;;;;;4977967;28;20123;-66
2020/12/25 07:30:59;;;;;;;2.33;1.85;;;4.70;80.40;;;;;;4980185;28;20034;-67
2020/12/25 07:33:25;;;;;;;1.50;1.40;;;4.70;80.20;;;;;;4994074;28;20035;-67
2020/12/25 07:35:51;;;;;;;1.17;1.08;;;4.60;80.20;;;;;;4981374;28;20080;-66
2020/12/25 07:38:17;;;;;;;1.30;1.20;;;4.60;80.20;;;;;;4979739;28;20453;-67
2020/12/25 07:40:44;;;;;;;1.58;0.90;;;4.60;80.20;;;;;;4977502;28;20042;-67
2020/12/25 07:43:11;;;;;;;1.33;1.23;;;4.50;80.20;;;;;;4980296;28;20529;-66
2020/12/25 07:45:38;;;;;;;1.95;1.17;;;4.50;80.30;;;;;;4985633;28;20030;-66
2020/12/25 07:48:08;;;;;;;1.35;1.17;;;4.50;80.50;;;;;;4979765;28;20096;-67
2020/12/25 07:50:42;;;;;;;1.40;1.30;;;4.40;80.60;;;;;;4978554;28;20406;-67
2020/12/25 07:53:11;;;;;;;;;;;4.40;80.70;;;;;;4980565;28;20042;-67
2020/12/25 07:55:37;;;;;;;1.55;1.42;;;4.40;81.10;;;;;;4979967;28;19956;-67
2020/12/25 07:58:03;;;;;;;2.22;2.00;;;4.40;80.50;;;;;;4978176;28;20034;-67
2020/12/25 08:00:33;;;;;;;2.47;2.20;;;4.30;80.60;;;;;;4978736;28;20041;-65
2020/12/25 08:02:59;;;;;;;3.05;2.78;;;4.30;81.70;;;;;;4976774;28;20123;-66
2020/12/25 08:05:28;;;;;;;2.20;2.00;;;4.20;81.00;;;;;;4971472;28;20506;-67
2020/12/25 08:07:55;;;;;;;1.90;1.75;;;4.20;81.40;;;;;;4979822;28;20039;-67
2020/12/25 08:10:22;;;;;;;1.60;1.50;;;4.20;81.40;;;;;;4976318;28;20038;-67
2020/12/25 08:12:53;;;;;;;1.27;1.17;;;4.20;81.60;;;;;;4979348;28;20568;-66
2020/12/25 08:15:20;;;;;;;1.45;1.27;;;4.10;81.70;;;;;;4980157;28;20133;-67
2020/12/25 08:18:06;;;;;;;1.20;1.10;;;4.10;81.70;;;;;;4979166;28;20038;-67
2020/12/25 08:20:33;;;;;;;1.23;1.13;;;4.10;83.00;;;;;;4978509;28;20607;-65
2020/12/25 08:23:00;;;;;;;1.50;1.40;;;4.10;82.00;;;;;;4979013;28;20031;-67
2020/12/25 08:25:27;;;;;;;1.70;1.60;;;4.10;82.10;;;;;;4979293;28;20117;-67
2020/12/25 08:27:54;;;;;;;3.85;1.50;;;4.10;82.10;;;;;;4979416;28;20441;-66
2020/12/25 08:30:21;;;;;;;1.80;1.50;;;4.10;82.10;;;;;;4979263;28;20050;-65
2020/12/25 08:32:47;;;;;;;1.50;1.10;;;4.00;82.10;;;;;;4978604;28;20440;-66
2020/12/25 08:35:18;;;;;;;1.50;1.40;;;4.00;82.10;;;;;;4979525;28;20109;-67
2020/12/25 08:37:53;;;;;;;1.45;1.35;;;4.10;82.30;;;;;;4979193;28;20058;-66
2020/12/25 08:40:19;;;;;;;1.95;1.50;;;4.00;82.30;;;;;;4979071;28;20041;-66
2020/12/25 08:42:44;;;;;;;2.97;1.55;;;4.00;82.10;;;;;;4979403;28;20121;-67
2020/12/25 08:45:20;;;;;;;1.70;1.40;;;4.00;82.10;;;;;;4979131;28;20035;-67
2020/12/25 08:48:02;;;;;;;1.17;1.00;;;4.10;82.30;;;;;;4977692;28;20039;-67
2020/12/25 08:50:28;;;;;;;1.40;1.30;;;4.10;82.20;;;;;;4977243;28;20521;-67
2020/12/25 08:53:09;;;;;;;2.00;1.50;;;4.10;82.00;;;;;;4978217;28;20064;-67
2020/12/25 08:55:35;;;;;;;1.98;1.70;;;4.10;82.30;;;;;;4978468;28;20383;-66
2020/12/25 08:58:00;;;;;;;3.28;1.88;;;4.10;82.10;;;;;;4979263;28;20034;-66
2020/12/25 09:00:26;;;;;;;2.55;2.15;;;4.10;82.10;;;;;;4978043;28;20113;-67
2020/12/25 09:02:58;;;;;;;2.08;1.65;;;4.20;82.10;;;;;;4978708;28;20039;-66
2020/12/25 09:05:24;;;;;;;1.50;1.40;;;4.20;81.80;;;;;;4977748;28;20039;-66
2020/12/25 09:07:49;;;;;;;2.85;2.50;;;4.20;81.60;;;;;;4978904;28;20049;-66
2020/12/25 09:10:16;;;;;;;2.03;1.92;;;4.20;81.60;;;;;;4979684;28;20035;-66
2020/12/25 09:12:41;;;;;;;1.80;1.70;;;4.20;81.50;;;;;;4977550;28;20122;-66
2020/12/25 09:15:07;;;;;;;3.00;2.63;;;4.30;81.60;;;;;;4981983;28;20105;-67
2020/12/25 09:17:32;;;;;;;1.40;1.30;;;4.30;81.70;;;;;;4980367;28;20090;-65
2020/12/25 09:19:58;;;;;;;1.13;1.13;;;4.30;81.80;;;;;;4982113;28;20058;-66
2020/12/25 09:22:24;;;;;;;1.10;1.10;;;4.30;81.90;;;;;;4981641;28;20038;-67
2020/12/25 09:24:49;;;;;;;1.08;1.08;;;4.30;82.00;;;;;;4982962;28;20077;-66
2020/12/25 09:27:15;;;;;;;1.40;1.27;;;4.40;81.80;;;;;;4982375;28;20031;-66
2020/12/25 09:29:40;;;;;;;1.48;1.38;;;4.40;81.70;;;;;;4982349;28;20494;-66
2020/12/25 09:32:07;;;;;;;1.30;1.05;;;4.40;81.80;;;;;;4982540;28;20061;-66
2020/12/25 09:34:32;;;;;;;2.83;1.73;;;4.50;81.80;;;;;;4981950;28;20093;-66
2020/12/25 09:36:58;;;;;;;8.10;2.83;;;4.50;81.30;;;;;;4982209;28;20556;-66
2020/12/25 09:39:23;;;;;;;4.30;1.90;;;4.50;81.20;;;;;;4983379;28;20042;-66
2020/12/25 09:41:49;;;;;;;5.18;2.20;;;4.50;81.20;;;;;;4980620;28;20062;-67
2020/12/25 09:44:15;;;;;;;2.70;2.00;;;4.50;81.20;;;;;;4983053;28;20103;-66
2020/12/25 09:46:41;;;;;;;1.40;1.30;;;4.60;81.70;;;;;;4981134;28;20034;-66
2020/12/25 09:49:07;;;;;;;2.60;1.90;;;4.50;80.60;;;;;;4981384;28;20084;-66
2020/12/25 09:51:33;;;;;;;2.67;1.75;;;4.50;80.50;;;;;;4980590;28;20030;-66
2020/12/25 09:53:58;;;;;;;1.70;1.48;;;4.50;80.50;;;;;;4981525;28;20042;-66
2020/12/25 09:56:24;;;;;;;1.80;1.35;;;4.60;80.90;;;;;;4980749;28;20084;-66
2020/12/25 09:58:49;;;;;;;2.50;1.80;;;4.50;81.10;;;;;;4981538;28;20168;-66
2020/12/25 10:01:15;;;;;;;2.10;1.90;;;4.60;81.30;;;;;;4980542;28;20038;-66
2020/12/25 10:03:41;;;;;;;2.00;1.80;;;4.60;81.30;;;;;;4981764;28;20027;-66
2020/12/25 10:06:06;;;;;;;3.17;2.25;;;4.70;81.40;;;;;;4982630;28;20038;-66
2020/12/25 10:08:32;;;;;;;2.47;1.88;;;4.70;81.10;;;;;;4981320;28;20084;-66
2020/12/25 10:10:58;;;;;;;2.25;1.70;;;4.70;81.00;;;;;;4981527;28;20038;-66
2020/12/25 10:13:24;;;;;;;2.20;2.00;;;4.80;81.00;;;;;;4980665;28;20049;-66
2020/12/25 10:15:50;;;;;;;2.33;1.90;;;4.80;80.90;;;;;;4980979;28;20511;-66
2020/12/25 10:18:16;;;;;;;2.20;2.00;;;4.80;80.50;;;;;;4982001;28;20030;-67
2020/12/25 10:20:41;;;;;;;2.35;1.95;;;4.90;80.40;;;;;;4981201;28;20616;-66
2020/12/25 10:23:07;;;;;;;2.65;1.90;;;4.90;80.30;;;;;;4982159;28;20023;-64
2020/12/25 10:25:32;;;;;;;1.95;1.77;;;4.90;80.50;;;;;;4979676;28;20042;-66
2020/12/25 10:27:58;;;;;;;3.45;2.13;;;4.90;80.40;;;;;;4980356;28;20503;-66
2020/12/25 10:30:23;;;;;;;1.77;1.63;;;4.90;79.90;;;;;;4979508;28;20034;-67
2020/12/25 10:32:49;;;;;;;2.33;2.13;;;5.00;79.80;;;;;;4981442;28;20510;-67
2020/12/25 10:35:15;;;;;;;2.13;1.83;;;5.00;79.90;;;;;;4982284;28;20058;-67
2020/12/25 10:37:40;;;;;;;2.10;1.65;;;5.00;79.90;;;;;;4981861;28;20039;-67
2020/12/25 10:40:06;;;;;;;2.20;2.00;;;5.00;80.10;;;;;;4983265;28;20041;-67
2020/12/25 10:42:32;;;;;;;2.25;1.77;;;4.90;80.10;;;;;;4979926;28;20565;-66
2020/12/25 10:44:57;;;;;;;3.25;1.80;;;5.00;80.40;;;;;;4979953;28;20578;-65
2020/12/25 10:47:23;;;;;;;3.45;2.22;;;5.00;80.50;;;;;;4980069;28;20034;-66
2020/12/25 10:49:49;;;;;;;3.55;2.85;;;5.00;80.60;;;;;;4982220;28;20437;-66
2020/12/25 10:52:15;;;;;;;3.88;2.85;;;5.10;80.80;;;;;;4979001;28;20054;-66
2020/12/25 10:54:40;;;;;;;3.95;2.70;;;5.20;80.90;;;;;;4978091;28;20552;-67
2020/12/25 10:57:06;;;;;;;3.15;2.63;;;5.20;81.00;;;;;;4977102;28;20073;-65
2020/12/25 10:59:32;;;;;;;3.00;2.60;;;5.30;80.70;;;;;;4980473;28;20066;-66
2020/12/25 11:01:57;;;;;;;3.22;2.38;;;5.30;80.20;;;;;;4978117;28;20129;-66
2020/12/25 11:04:23;;;;;;;3.75;2.63;;;5.30;80.00;;;;;;4978949;28;20038;-66
2020/12/25 11:06:48;;;;;;;3.50;2.70;;;5.30;79.90;;;;;;4979706;28;20158;-66
2020/12/25 11:09:14;;;;;;;3.70;2.72;;;5.30;79.90;;;;;;4993325;28;20034;-67
2020/12/25 11:11:40;;;;;;;3.60;2.78;;;5.40;80.00;;;;;;4980075;28;20093;-66
2020/12/25 11:14:07;;;;;;;2.95;2.63;;;5.30;79.10;;;;;;4980356;28;20114;-66
2020/12/25 11:16:35;;;;;;;3.58;2.40;;;5.30;79.30;;;;;;4980175;28;20033;-67
2020/12/25 11:19:02;;;;;;;2.35;2.15;;;5.30;79.20;;;;;;4980358;28;20081;-66
2020/12/25 11:21:29;;;;;;;4.07;2.83;;;5.30;79.30;;;;;;4980041;28;20029;-66
2020/12/25 11:23:56;;;;;;;2.55;2.35;;;5.30;79.40;;;;;;4980989;28;20577;-66
2020/12/25 11:26:33;;;;;;;3.13;2.35;;;5.30;79.20;;;;;;4979655;28;20026;-66
2020/12/25 11:29:00;;;;;;;2.25;1.70;;;5.30;79.00;;;;;;4978749;28;20027;-66
2020/12/25 11:31:27;;;;;;;2.42;2.15;;;5.30;79.20;;;;;;4979843;28;20061;-66
2020/12/25 11:33:54;;;;;;;2.03;1.90;;;5.30;79.20;;;;;;4978792;28;20119;-65
2020/12/25 11:36:22;;;;;;;1.88;1.73;;;5.30;79.50;;;;;;4980223;28;20086;-67
2020/12/25 11:38:48;;;;;;;1.58;1.48;;;5.30;80.10;;;;;;4976897;28;20023;-65
2020/12/25 11:41:15;;;;;;;1.67;1.58;;;5.30;79.20;;;;;;4979969;28;20027;-66
2020/12/25 11:43:42;;;;;;;1.48;1.38;;;5.30;79.00;;;;;;4978394;28;20531;-66
2020/12/25 11:46:08;;;;;;;1.90;1.80;;;5.30;79.00;;;;;;4977932;28;20100;-66
2020/12/25 11:48:35;;;;;;;1.98;1.88;;;5.30;79.00;;;;;;4976554;28;20501;-66
2020/12/25 11:51:01;;;;;;;2.20;1.92;;;5.40;78.50;;;;;;4984002;28;20043;-67
2020/12/25 11:53:30;;;;;;;1.95;1.85;;;5.30;78.50;;;;;;4982162;28;20059;-66
2020/12/25 11:55:56;;;;;;;1.67;1.58;;;5.30;78.70;;;;;;4979886;28;20126;-65
2020/12/25 11:58:21;;;;;;;2.08;1.88;;;5.30;79.10;;;;;;4981969;28;20129;-66
2020/12/25 12:00:47;;;;;;;2.22;2.05;;;5.40;79.50;;;;;;4981490;28;20052;-65
2020/12/25 12:03:13;;;;;;;2.30;2.10;;;5.40;79.50;;;;;;4981737;28;20109;-65
2020/12/25 12:05:42;;;;;;;2.60;2.40;;;5.40;79.40;;;;;;4979802;28;20061;-66
2020/12/25 12:08:12;;;;;;;2.85;2.22;;;5.40;79.70;;;;;;4981129;28;20093;-67
2020/12/25 12:10:39;;;;;;;2.55;2.35;;;5.40;78.60;;;;;;4980901;28;20450;-66
2020/12/25 12:13:05;;;;;;;2.42;2.20;;;5.50;79.00;;;;;;4994489;28;20041;-65
2020/12/25 12:15:38;;;;;;;2.78;2.30;;;5.50;78.50;;;;;;4981260;28;20037;-66
2020/12/25 12:18:05;;;;;;;2.35;2.00;;;5.50;77.40;;;;;;4982161;28;20034;-66
2020/12/25 12:20:32;;;;;;;2.58;2.10;;;5.50;77.20;;;;;;4980208;28;20030;-66
2020/12/25 12:22:57;;;;;;;4.70;3.05;;;5.50;78.00;;;;;;4980380;28;20035;-66
2020/12/25 12:25:23;;;;;;;2.90;2.50;;;5.50;77.20;;;;;;4980914;28;20470;-65
2020/12/25 12:27:49;;;;;;;2.53;2.33;;;5.50;77.60;;;;;;4979437;28;20045;-66
2020/12/25 12:30:14;;;;;;;2.88;2.45;;;5.40;77.30;;;;;;4980782;28;20558;-66
2020/12/25 12:32:40;;;;;;;4.05;2.10;;;5.40;77.00;;;;;;4977942;28;20102;-66
2020/12/25 12:35:06;;;;;;;2.90;2.53;;;5.40;77.20;;;;;;4977779;28;20042;-66
2020/12/25 12:37:31;;;;;;;2.70;2.47;;;5.40;77.60;;;;;;4976203;28;20038;-66
2020/12/25 12:39:57;;;;;;;3.83;2.88;;;5.40;76.70;;;;;;4978707;28;20049;-66
2020/12/25 12:42:22;;;;;;;3.58;2.72;;;5.40;77.40;;;;;;4978454;28;20054;-66
2020/12/25 12:44:49;;;;;;;2.60;2.40;;;5.40;77.60;;;;;;4977273;28;20037;-65
2020/12/25 12:47:15;;;;;;;3.90;3.45;;;5.40;77.80;;;;;;4977643;28;20035;-66
2020/12/25 12:49:41;;;;;;;5.13;3.65;;;5.50;78.10;;;;;;4980503;28;20525;-66
2020/12/25 12:52:07;;;;;;;4.55;3.47;;;5.50;78.30;;;;;;4983062;28;20042;-67
2020/12/25 12:54:35;;;;;;;5.80;4.10;;;5.50;78.10;;;;;;4982697;28;20057;-66
2020/12/25 12:57:00;;;;;;;3.25;2.92;;;5.50;78.00;;;;;;4983587;28;20035;-66